sensor_id;sensor_type;location;lat;lon;timestamp;pressure;altitude;pressure_sealevel;temperature;humidity
13124;BME280;6627;50.920;12.050;2023-06-14T00:01:51;98541.53;;;22.29;40.56
13124;BME280;6627;50.920;12.050;2023-06-14T00:04:19;98623.97;;;22.93;39.88
13124;BME280;6627;50.920;12.050;2023-06-14T00:06:48;98576.47;;;22.66;40.08
13124;BME280;6627;50.920;12.050;2023-06-14T00:09:16;98637.44;;;22.95;39.92
13124;BME280;6627;50.920;12.050;2023-06-14T00:11:44;98611.78;;;22.94;39.80
13124;BME280;6627;50.920;12.050;2023-06-14T00:14:11;98573.69;;;22.66;39.62
13124;BME280;6627;50.920;12.050;2023-06-14T00:16:39;98483.75;;;21.99;40.71
13124;BME280;6627;50.920;12.050;2023-06-14T00:19:08;98503.47;;;21.98;40.93
13124;BME280;6627;50.920;12.050;2023-06-14T00:21:38;98466.78;;;21.46;41.91
13124;BME280;6627;50.920;12.050;2023-06-14T00:24:07;98557.16;;;22.11;41.39
13124;BME280;6627;50.920;12.050;2023-06-14T00:26:34;98584.66;;;22.52;39.93
13124;BME280;6627;50.920;12.050;2023-06-14T00:29:02;98678.53;;;23.07;39.62
13124;BME280;6627;50.920;12.050;2023-06-14T00:31:30;98601.22;;;22.52;40.46
13124;BME280;6627;50.920;12.050;2023-06-14T00:33:57;98526.66;;;21.93;41.19
13124;BME280;6627;50.920;12.050;2023-06-14T00:36:24;98557.06;;;22.04;41.01
13124;BME280;6627;50.920;12.050;2023-06-14T00:38:52;98581.72;;;22.23;40.60
13124;BME280;6627;50.920;12.050;2023-06-14T00:41:20;98494.66;;;21.81;40.86
13124;BME280;6627;50.920;12.050;2023-06-14T00:43:47;98477.94;;;21.56;41.22
13124;BME280;6627;50.920;12.050;2023-06-14T00:46:14;98579.31;;;22.18;41.26
13124;BME280;6627;50.920;12.050;2023-06-14T00:48:42;98534.06;;;21.85;41.17
13124;BME280;6627;50.920;12.050;2023-06-14T00:51:09;98553.88;;;21.98;41.29
13124;BME280;6627;50.920;12.050;2023-06-14T00:53:37;98486.22;;;21.23;42.48
13124;BME280;6627;50.920;12.050;2023-06-14T00:56:07;98538.28;;;21.72;42.08
13124;BME280;6627;50.920;12.050;2023-06-14T00:58:34;98530.28;;;21.60;41.74
13124;BME280;6627;50.920;12.050;2023-06-14T01:01:01;98562.31;;;21.72;42.61
13124;BME280;6627;50.920;12.050;2023-06-14T01:03:29;98608.25;;;21.98;41.80
13124;BME280;6627;50.920;12.050;2023-06-14T01:06:08;98542.09;;;21.23;42.95
13124;BME280;6627;50.920;12.050;2023-06-14T01:08:47;98612.47;;;21.84;42.46
13124;BME280;6627;50.920;12.050;2023-06-14T01:11:28;98600.13;;;21.71;42.39
13124;BME280;6627;50.920;12.050;2023-06-14T01:14:01;98637.06;;;22.04;41.63
13124;BME280;6627;50.920;12.050;2023-06-14T01:16:30;98647.84;;;22.16;41.37
13124;BME280;6627;50.920;12.050;2023-06-14T01:18:58;98646.94;;;22.08;41.51
13124;BME280;6627;50.920;12.050;2023-06-14T01:21:28;98609.22;;;21.75;42.10
13124;BME280;6627;50.920;12.050;2023-06-14T01:23:57;98728.81;;;22.79;40.77
13124;BME280;6627;50.920;12.050;2023-06-14T01:26:25;98669.78;;;22.46;40.62
13124;BME280;6627;50.920;12.050;2023-06-14T01:28:55;98635.13;;;22.08;41.61
13124;BME280;6627;50.920;12.050;2023-06-14T01:31:25;98566.97;;;21.64;41.50
13124;BME280;6627;50.920;12.050;2023-06-14T01:33:53;98570.66;;;21.41;42.41
13124;BME280;6627;50.920;12.050;2023-06-14T01:36:24;98655.63;;;22.07;42.19
13124;BME280;6627;50.920;12.050;2023-06-14T01:38:54;98518.75;;;21.10;42.99
13124;BME280;6627;50.920;12.050;2023-06-14T01:41:24;98615.75;;;21.60;42.92
13124;BME280;6627;50.920;12.050;2023-06-14T01:43:54;98586.41;;;21.41;42.96
13124;BME280;6627;50.920;12.050;2023-06-14T01:46:22;98630.34;;;21.60;42.72
13124;BME280;6627;50.920;12.050;2023-06-14T01:48:50;98640.38;;;21.79;42.32
13124;BME280;6627;50.920;12.050;2023-06-14T01:51:18;98650.72;;;21.89;41.76
13124;BME280;6627;50.920;12.050;2023-06-14T01:53:45;98572.66;;;21.11;43.20
13124;BME280;6627;50.920;12.050;2023-06-14T01:56:12;98615.94;;;21.40;43.20
13124;BME280;6627;50.920;12.050;2023-06-14T01:58:41;98674.94;;;21.73;42.86
13124;BME280;6627;50.920;12.050;2023-06-14T02:01:08;98646.41;;;21.55;43.11
13124;BME280;6627;50.920;12.050;2023-06-14T02:03:37;98679.09;;;21.90;42.47
13124;BME280;6627;50.920;12.050;2023-06-14T02:06:05;98701.19;;;21.94;42.90
13124;BME280;6627;50.920;12.050;2023-06-14T02:08:32;98736.44;;;22.45;41.22
13124;BME280;6627;50.920;12.050;2023-06-14T02:10:59;98582.50;;;21.12;43.27
13124;BME280;6627;50.920;12.050;2023-06-14T02:13:26;98522.06;;;20.32;44.76
13124;BME280;6627;50.920;12.050;2023-06-14T02:15:56;98532.56;;;20.27;45.54
13124;BME280;6627;50.920;12.050;2023-06-14T02:18:23;98617.06;;;20.79;44.80
13124;BME280;6627;50.920;12.050;2023-06-14T02:20:50;98579.72;;;20.52;45.27
13124;BME280;6627;50.920;12.050;2023-06-14T02:23:17;98800.47;;;21.94;43.76
13124;BME280;6627;50.920;12.050;2023-06-14T02:25:45;98718.16;;;21.62;42.67
13124;BME280;6627;50.920;12.050;2023-06-14T02:28:12;98734.84;;;21.76;42.78
13124;BME280;6627;50.920;12.050;2023-06-14T02:30:39;98491.28;;;19.74;45.39
13124;BME280;6627;50.920;12.050;2023-06-14T02:33:08;98531.88;;;19.61;46.87
13124;BME280;6627;50.920;12.050;2023-06-14T02:35:38;98497.38;;;19.21;47.42
13124;BME280;6627;50.920;12.050;2023-06-14T02:38:05;98560.78;;;19.55;47.43
13124;BME280;6627;50.920;12.050;2023-06-14T02:40:32;98679.13;;;20.27;46.34
13124;BME280;6627;50.920;12.050;2023-06-14T02:42:59;98586.53;;;19.47;47.55
13124;BME280;6627;50.920;12.050;2023-06-14T02:45:27;98609.53;;;19.58;47.21
13124;BME280;6627;50.920;12.050;2023-06-14T02:47:55;98713.13;;;20.38;46.14
13124;BME280;6627;50.920;12.050;2023-06-14T02:50:24;98642.56;;;19.81;46.55
13124;BME280;6627;50.920;12.050;2023-06-14T02:52:54;98755.34;;;20.69;45.47
13124;BME280;6627;50.920;12.050;2023-06-14T02:55:22;98711.47;;;20.34;45.73
13124;BME280;6627;50.920;12.050;2023-06-14T02:57:50;98747.75;;;20.62;45.29
13124;BME280;6627;50.920;12.050;2023-06-14T03:00:19;98759.91;;;20.84;44.79
13124;BME280;6627;50.920;12.050;2023-06-14T03:02:47;98741.13;;;20.67;45.20
13124;BME280;6627;50.920;12.050;2023-06-14T03:05:14;98749.63;;;20.58;45.54
13124;BME280;6627;50.920;12.050;2023-06-14T03:07:43;98628.50;;;19.44;46.94
13124;BME280;6627;50.920;12.050;2023-06-14T03:10:11;98633.53;;;19.41;47.36
13124;BME280;6627;50.920;12.050;2023-06-14T03:12:39;98777.13;;;20.55;45.93
13124;BME280;6627;50.920;12.050;2023-06-14T03:15:08;98733.41;;;20.30;45.74
13124;BME280;6627;50.920;12.050;2023-06-14T03:17:37;98655.66;;;19.49;47.05
13124;BME280;6627;50.920;12.050;2023-06-14T03:20:07;98678.09;;;19.70;47.13
13124;BME280;6627;50.920;12.050;2023-06-14T03:22:34;98716.44;;;20.05;46.42
13124;BME280;6627;50.920;12.050;2023-06-14T03:25:04;98647.97;;;19.38;47.06
13124;BME280;6627;50.920;12.050;2023-06-14T03:27:32;98756.50;;;20.26;46.22
13124;BME280;6627;50.920;12.050;2023-06-14T03:29:59;98749.78;;;20.23;46.07
13124;BME280;6627;50.920;12.050;2023-06-14T03:32:27;98802.00;;;20.62;45.48
13124;BME280;6627;50.920;12.050;2023-06-14T03:34:54;98686.03;;;19.75;45.79
13124;BME280;6627;50.920;12.050;2023-06-14T03:37:21;98637.41;;;19.02;47.70
13124;BME280;6627;50.920;12.050;2023-06-14T03:39:48;98664.88;;;19.21;47.84
13124;BME280;6627;50.920;12.050;2023-06-14T03:42:17;98628.28;;;18.78;48.73
13124;BME280;6627;50.920;12.050;2023-06-14T03:44:44;98782.78;;;19.65;47.97
13124;BME280;6627;50.920;12.050;2023-06-14T03:47:11;98801.44;;;20.14;46.21
13124;BME280;6627;50.920;12.050;2023-06-14T03:49:39;98838.78;;;20.34;46.43
13124;BME280;6627;50.920;12.050;2023-06-14T03:52:06;98829.94;;;20.45;45.60
13124;BME280;6627;50.920;12.050;2023-06-14T03:54:34;98774.56;;;19.84;46.83
13124;BME280;6627;50.920;12.050;2023-06-14T03:57:01;98769.78;;;19.81;46.75
13124;BME280;6627;50.920;12.050;2023-06-14T03:59:30;98777.63;;;20.22;45.63
13124;BME280;6627;50.920;12.050;2023-06-14T04:01:57;98794.50;;;20.01;46.32
13124;BME280;6627;50.920;12.050;2023-06-14T04:04:24;98867.88;;;20.74;45.14
13124;BME280;6627;50.920;12.050;2023-06-14T04:06:54;98910.97;;;21.09;45.08
13124;BME280;6627;50.920;12.050;2023-06-14T04:09:23;98844.13;;;20.66;45.32
13124;BME280;6627;50.920;12.050;2023-06-14T04:11:51;98863.38;;;20.85;44.97
13124;BME280;6627;50.920;12.050;2023-06-14T04:14:19;98905.97;;;21.14;44.83
13124;BME280;6627;50.920;12.050;2023-06-14T04:16:48;98854.25;;;21.04;43.90
13124;BME280;6627;50.920;12.050;2023-06-14T04:19:16;98955.91;;;21.82;43.06
13124;BME280;6627;50.920;12.050;2023-06-14T04:21:43;98872.59;;;21.42;43.51
13124;BME280;6627;50.920;12.050;2023-06-14T04:24:10;98917.88;;;21.95;42.80
13124;BME280;6627;50.920;12.050;2023-06-14T04:26:40;98948.81;;;22.07;42.91
13124;BME280;6627;50.920;12.050;2023-06-14T04:29:10;98905.16;;;21.86;43.17
13124;BME280;6627;50.920;12.050;2023-06-14T04:31:40;98856.06;;;21.69;42.93
13124;BME280;6627;50.920;12.050;2023-06-14T04:34:09;98854.91;;;21.44;44.28
13124;BME280;6627;50.920;12.050;2023-06-14T04:36:43;98928.28;;;22.05;43.20
13124;BME280;6627;50.920;12.050;2023-06-14T04:39:15;98981.91;;;22.64;41.96
13124;BME280;6627;50.920;12.050;2023-06-14T04:41:43;99000.13;;;22.99;41.09
13124;BME280;6627;50.920;12.050;2023-06-14T04:44:11;98906.09;;;22.24;42.56
13124;BME280;6627;50.920;12.050;2023-06-14T04:46:39;98799.78;;;21.17;44.54
13124;BME280;6627;50.920;12.050;2023-06-14T04:49:13;98878.03;;;21.62;44.44
13124;BME280;6627;50.920;12.050;2023-06-14T04:51:42;98872.72;;;21.76;43.99
13124;BME280;6627;50.920;12.050;2023-06-14T04:54:09;99004.63;;;22.50;43.79
13124;BME280;6627;50.920;12.050;2023-06-14T04:56:39;99064.31;;;23.22;41.90
13124;BME280;6627;50.920;12.050;2023-06-14T04:59:08;98884.69;;;21.87;43.20
13124;BME280;6627;50.920;12.050;2023-06-14T05:01:37;98954.03;;;22.42;43.26
13124;BME280;6627;50.920;12.050;2023-06-14T05:04:04;98895.69;;;21.84;44.08
13124;BME280;6627;50.920;12.050;2023-06-14T05:06:33;99008.78;;;22.67;43.62
13124;BME280;6627;50.920;12.050;2023-06-14T05:09:00;99038.97;;;23.13;41.98
13124;BME280;6627;50.920;12.050;2023-06-14T05:11:27;98990.88;;;22.87;42.42
13124;BME280;6627;50.920;12.050;2023-06-14T05:13:55;98888.81;;;22.01;43.61
13124;BME280;6627;50.920;12.050;2023-06-14T05:16:24;98944.44;;;22.63;42.49
13124;BME280;6627;50.920;12.050;2023-06-14T05:18:51;98892.09;;;22.10;42.92
13124;BME280;6627;50.920;12.050;2023-06-14T05:21:19;98995.09;;;23.08;41.94
13124;BME280;6627;50.920;12.050;2023-06-14T05:23:47;99016.94;;;23.20;41.70
13124;BME280;6627;50.920;12.050;2023-06-14T05:26:14;98914.06;;;22.63;42.33
13124;BME280;6627;50.920;12.050;2023-06-14T05:28:42;98992.31;;;23.08;42.10
13124;BME280;6627;50.920;12.050;2023-06-14T05:31:10;98931.25;;;22.49;43.02
13124;BME280;6627;50.920;12.050;2023-06-14T05:33:37;98902.59;;;22.27;43.74
13124;BME280;6627;50.920;12.050;2023-06-14T05:36:04;99018.78;;;23.09;42.35
13124;BME280;6627;50.920;12.050;2023-06-14T05:38:31;99033.91;;;23.22;42.20
13124;BME280;6627;50.920;12.050;2023-06-14T05:41:00;98912.91;;;22.34;42.98
13124;BME280;6627;50.920;12.050;2023-06-14T05:43:28;98929.75;;;22.55;42.51
13124;BME280;6627;50.920;12.050;2023-06-14T05:45:55;98931.03;;;22.31;43.24
13124;BME280;6627;50.920;12.050;2023-06-14T05:48:22;98997.03;;;22.74;42.84
13124;BME280;6627;50.920;12.050;2023-06-14T05:50:49;98968.56;;;22.70;42.88
13124;BME280;6627;50.920;12.050;2023-06-14T05:53:17;98971.00;;;22.75;42.44
13124;BME280;6627;50.920;12.050;2023-06-14T05:55:44;98953.34;;;22.83;42.22
13124;BME280;6627;50.920;12.050;2023-06-14T05:58:13;98957.56;;;22.73;42.23
13124;BME280;6627;50.920;12.050;2023-06-14T06:00:41;98943.03;;;22.46;42.97
13124;BME280;6627;50.920;12.050;2023-06-14T06:03:08;99061.03;;;23.47;41.55
13124;BME280;6627;50.920;12.050;2023-06-14T06:05:35;99120.88;;;24.03;40.87
13124;BME280;6627;50.920;12.050;2023-06-14T06:08:02;99034.97;;;23.48;41.65
13124;BME280;6627;50.920;12.050;2023-06-14T06:10:30;98948.91;;;22.75;42.18
13124;BME280;6627;50.920;12.050;2023-06-14T06:12:57;99100.34;;;24.07;40.65
13124;BME280;6627;50.920;12.050;2023-06-14T06:15:26;99157.63;;;24.40;40.53
13124;BME280;6627;50.920;12.050;2023-06-14T06:17:53;99029.59;;;23.62;40.52
13124;BME280;6627;50.920;12.050;2023-06-14T06:20:21;99059.06;;;23.84;40.38
13124;BME280;6627;50.920;12.050;2023-06-14T06:22:53;99214.31;;;25.09;39.29
13124;BME280;6627;50.920;12.050;2023-06-14T06:25:21;99251.00;;;25.54;38.34
13124;BME280;6627;50.920;12.050;2023-06-14T06:27:52;99056.44;;;24.54;38.78
13124;BME280;6627;50.920;12.050;2023-06-14T06:30:20;99096.97;;;24.87;38.72
13124;BME280;6627;50.920;12.050;2023-06-14T06:32:48;99123.16;;;25.00;38.71
13124;BME280;6627;50.920;12.050;2023-06-14T06:35:16;99134.84;;;25.34;37.83
13124;BME280;6627;50.920;12.050;2023-06-14T06:37:44;99074.09;;;24.97;38.57
13124;BME280;6627;50.920;12.050;2023-06-14T06:40:12;99153.50;;;25.48;38.34
13124;BME280;6627;50.920;12.050;2023-06-14T06:42:39;98954.59;;;24.22;39.33
13124;BME280;6627;50.920;12.050;2023-06-14T06:45:07;99221.16;;;26.27;37.23
13124;BME280;6627;50.920;12.050;2023-06-14T06:47:35;99038.53;;;25.17;37.72
13124;BME280;6627;50.920;12.050;2023-06-14T06:50:05;99037.66;;;24.99;38.49
13124;BME280;6627;50.920;12.050;2023-06-14T06:52:33;99034.19;;;25.20;37.60
13124;BME280;6627;50.920;12.050;2023-06-14T06:55:01;99238.66;;;26.60;36.94
13124;BME280;6627;50.920;12.050;2023-06-14T06:57:29;99012.44;;;25.43;36.71
13124;BME280;6627;50.920;12.050;2023-06-14T06:59:57;99118.41;;;26.34;35.99
13124;BME280;6627;50.920;12.050;2023-06-14T07:02:24;99129.88;;;26.29;36.99
13124;BME280;6627;50.920;12.050;2023-06-14T07:04:52;99008.16;;;25.78;36.59
13124;BME280;6627;50.920;12.050;2023-06-14T07:07:20;98978.38;;;25.57;36.75
13124;BME280;6627;50.920;12.050;2023-06-14T07:09:47;99240.22;;;27.18;35.94
13124;BME280;6627;50.920;12.050;2023-06-14T07:12:15;99250.94;;;27.34;35.22
13124;BME280;6627;50.920;12.050;2023-06-14T07:14:42;99031.50;;;26.45;34.97
13124;BME280;6627;50.920;12.050;2023-06-14T07:17:09;99042.59;;;26.52;35.21
13124;BME280;6627;50.920;12.050;2023-06-14T07:19:37;99126.69;;;26.84;36.03
13124;BME280;6627;50.920;12.050;2023-06-14T07:22:04;99130.94;;;27.28;34.69
13124;BME280;6627;50.920;12.050;2023-06-14T07:24:33;99240.34;;;28.02;34.52
13124;BME280;6627;50.920;12.050;2023-06-14T07:27:02;99170.00;;;27.95;33.50
13124;BME280;6627;50.920;12.050;2023-06-14T07:29:30;99192.34;;;28.47;32.60
13124;BME280;6627;50.920;12.050;2023-06-14T07:31:57;99067.28;;;28.04;32.40
13124;BME280;6627;50.920;12.050;2023-06-14T07:34:24;99153.50;;;28.70;32.25
13124;BME280;6627;50.920;12.050;2023-06-14T07:36:52;99140.41;;;28.63;32.20
13124;BME280;6627;50.920;12.050;2023-06-14T07:39:20;99047.28;;;28.16;32.52
13124;BME280;6627;50.920;12.050;2023-06-14T07:41:49;98804.59;;;26.27;34.79
13124;BME280;6627;50.920;12.050;2023-06-14T07:44:17;99068.84;;;28.05;32.82
13124;BME280;6627;50.920;12.050;2023-06-14T07:46:44;99081.66;;;27.99;33.53
13124;BME280;6627;50.920;12.050;2023-06-14T07:49:12;99048.28;;;27.91;33.13
13124;BME280;6627;50.920;12.050;2023-06-14T07:51:39;99203.59;;;28.77;33.12
13124;BME280;6627;50.920;12.050;2023-06-14T07:54:07;98967.34;;;27.64;32.59
13124;BME280;6627;50.920;12.050;2023-06-14T07:56:35;99137.00;;;28.41;33.08
13124;BME280;6627;50.920;12.050;2023-06-14T07:59:03;99234.00;;;29.09;32.39
13124;BME280;6627;50.920;12.050;2023-06-14T08:01:32;98970.25;;;27.99;32.28
13124;BME280;6627;50.920;12.050;2023-06-14T08:03:59;99275.03;;;29.50;32.45
13124;BME280;6627;50.920;12.050;2023-06-14T08:06:27;98957.34;;;27.74;33.14
13124;BME280;6627;50.920;12.050;2023-06-14T08:08:54;99067.56;;;28.20;33.03
13124;BME280;6627;50.920;12.050;2023-06-14T08:11:21;99111.34;;;28.64;32.35
13124;BME280;6627;50.920;12.050;2023-06-14T08:13:50;99052.66;;;28.37;32.21
13124;BME280;6627;50.920;12.050;2023-06-14T08:16:18;99249.50;;;29.86;31.03
13124;BME280;6627;50.920;12.050;2023-06-14T08:18:45;99227.19;;;30.40;29.80
13124;BME280;6627;50.920;12.050;2023-06-14T08:21:13;98922.84;;;28.44;31.69
13124;BME280;6627;50.920;12.050;2023-06-14T08:23:40;99105.91;;;29.53;31.40
13124;BME280;6627;50.920;12.050;2023-06-14T08:26:09;99191.56;;;30.21;30.26
13124;BME280;6627;50.920;12.050;2023-06-14T08:28:36;98893.50;;;28.32;31.59
13124;BME280;6627;50.920;12.050;2023-06-14T08:31:04;98881.09;;;28.02;32.10
13124;BME280;6627;50.920;12.050;2023-06-14T08:33:33;99043.31;;;28.92;31.13
13124;BME280;6627;50.920;12.050;2023-06-14T08:36:00;99059.59;;;29.28;30.96
13124;BME280;6627;50.920;12.050;2023-06-14T08:38:27;99175.88;;;30.00;30.15
13124;BME280;6627;50.920;12.050;2023-06-14T08:40:57;98983.28;;;29.15;30.23
13124;BME280;6627;50.920;12.050;2023-06-14T08:43:25;98985.53;;;29.24;29.92
13124;BME280;6627;50.920;12.050;2023-06-14T08:46:01;98883.59;;;28.61;30.23
13124;BME280;6627;50.920;12.050;2023-06-14T08:48:30;98806.06;;;28.22;30.36
13124;BME280;6627;50.920;12.050;2023-06-14T08:51:01;98932.41;;;29.04;29.80
13124;BME280;6627;50.920;12.050;2023-06-14T08:53:31;98928.88;;;29.00;30.19
13124;BME280;6627;50.920;12.050;2023-06-14T08:56:00;98900.91;;;29.07;29.86
13124;BME280;6627;50.920;12.050;2023-06-14T08:58:28;99114.06;;;30.25;29.09
13124;BME280;6627;50.920;12.050;2023-06-14T09:00:57;99102.69;;;30.35;28.58
13124;BME280;6627;50.920;12.050;2023-06-14T09:03:25;99028.22;;;30.25;28.08
13124;BME280;6627;50.920;12.050;2023-06-14T09:05:56;99080.44;;;30.52;28.46
13124;BME280;6627;50.920;12.050;2023-06-14T09:08:27;99071.59;;;30.33;28.93
13124;BME280;6627;50.920;12.050;2023-06-14T09:10:57;99012.84;;;29.90;29.74
13124;BME280;6627;50.920;12.050;2023-06-14T09:13:26;98998.94;;;29.86;29.83
13124;BME280;6627;50.920;12.050;2023-06-14T09:15:54;98790.03;;;29.34;28.37
13124;BME280;6627;50.920;12.050;2023-06-14T09:18:21;98980.94;;;30.11;28.53
13124;BME280;6627;50.920;12.050;2023-06-14T09:20:48;99176.97;;;30.83;29.51
13124;BME280;6627;50.920;12.050;2023-06-14T09:23:20;98882.94;;;30.02;28.13
13124;BME280;6627;50.920;12.050;2023-06-14T09:25:50;98935.53;;;30.07;28.16
13124;BME280;6627;50.920;12.050;2023-06-14T09:28:18;98950.84;;;29.99;28.45
13124;BME280;6627;50.920;12.050;2023-06-14T09:30:46;99095.78;;;31.07;27.64
13124;BME280;6627;50.920;12.050;2023-06-14T09:33:17;98982.22;;;30.89;27.60
13124;BME280;6627;50.920;12.050;2023-06-14T09:35:45;98948.75;;;30.66;27.20
13124;BME280;6627;50.920;12.050;2023-06-14T09:38:12;98878.59;;;30.21;27.46
13124;BME280;6627;50.920;12.050;2023-06-14T09:40:40;98774.72;;;29.66;27.58
13124;BME280;6627;50.920;12.050;2023-06-14T09:43:08;98948.03;;;30.62;27.29
13124;BME280;6627;50.920;12.050;2023-06-14T09:45:36;98978.56;;;30.93;26.88
13124;BME280;6627;50.920;12.050;2023-06-14T09:48:07;98866.34;;;30.34;26.84
13124;BME280;6627;50.920;12.050;2023-06-14T09:50:34;98819.88;;;30.40;26.44
13124;BME280;6627;50.920;12.050;2023-06-14T09:53:07;98721.75;;;29.82;27.00
13124;BME280;6627;50.920;12.050;2023-06-14T09:55:37;98870.91;;;30.64;26.37
13124;BME280;6627;50.920;12.050;2023-06-14T09:58:08;98728.09;;;30.03;26.75
13124;BME280;6627;50.920;12.050;2023-06-14T10:00:37;98874.41;;;30.69;26.84
13124;BME280;6627;50.920;12.050;2023-06-14T10:03:13;98838.78;;;30.53;26.50
13124;BME280;6627;50.920;12.050;2023-06-14T10:05:44;98705.09;;;29.95;26.37
13124;BME280;6627;50.920;12.050;2023-06-14T10:08:15;98758.09;;;30.19;26.30
13124;BME280;6627;50.920;12.050;2023-06-14T10:10:43;98727.53;;;29.91;26.82
13124;BME280;6627;50.920;12.050;2023-06-14T10:13:13;98858.94;;;30.64;26.43
13124;BME280;6627;50.920;12.050;2023-06-14T10:15:52;98844.75;;;30.71;26.41
13124;BME280;6627;50.920;12.050;2023-06-14T10:18:33;98693.41;;;29.84;26.46
13124;BME280;6627;50.920;12.050;2023-06-14T10:21:16;98851.19;;;30.52;26.95
13124;BME280;6627;50.920;12.050;2023-06-14T10:23:46;99032.69;;;31.58;26.72
13124;BME280;6627;50.920;12.050;2023-06-14T10:26:20;98948.75;;;31.87;24.90
13124;BME280;6627;50.920;12.050;2023-06-14T10:29:00;98743.97;;;30.95;25.05
13124;BME280;6627;50.920;12.050;2023-06-14T10:31:42;98645.81;;;30.24;25.40
13124;BME280;6627;50.920;12.050;2023-06-14T10:34:10;98726.09;;;30.56;25.49
13124;BME280;6627;50.920;12.050;2023-06-14T10:36:43;98968.56;;;31.97;24.90
13124;BME280;6627;50.920;12.050;2023-06-14T10:39:15;98796.72;;;31.42;24.52
13124;BME280;6627;50.920;12.050;2023-06-14T10:41:52;98806.34;;;31.40;25.33
13124;BME280;6627;50.920;12.050;2023-06-14T10:44:41;98574.72;;;30.08;25.58
13124;BME280;6627;50.920;12.050;2023-06-14T10:47:25;98722.44;;;30.75;25.09
13124;BME280;6627;50.920;12.050;2023-06-14T10:49:54;98770.88;;;31.05;25.22
13124;BME280;6627;50.920;12.050;2023-06-14T10:52:25;98543.00;;;29.66;26.26
13124;BME280;6627;50.920;12.050;2023-06-14T10:55:04;98835.41;;;31.30;24.89
13124;BME280;6627;50.920;12.050;2023-06-14T10:57:32;98952.25;;;32.08;24.60
13124;BME280;6627;50.920;12.050;2023-06-14T11:00:03;98711.41;;;31.01;24.64
13124;BME280;6627;50.920;12.050;2023-06-14T11:03:30;98661.09;;;30.68;24.98
13124;BME280;6627;50.920;12.050;2023-06-14T11:06:00;98718.88;;;30.91;24.62
13124;BME280;6627;50.920;12.050;2023-06-14T11:11:42;98591.06;;;30.43;25.35
13124;BME280;6627;50.920;12.050;2023-06-14T11:14:10;98750.06;;;30.89;25.71
13124;BME280;6627;50.920;12.050;2023-06-14T11:16:39;98652.88;;;30.45;25.74
13124;BME280;6627;50.920;12.050;2023-06-14T11:19:07;98687.66;;;30.76;25.23
13124;BME280;6627;50.920;12.050;2023-06-14T11:21:39;98930.53;;;31.96;24.73
13124;BME280;6627;50.920;12.050;2023-06-14T11:24:10;98706.44;;;30.76;25.63
13124;BME280;6627;50.920;12.050;2023-06-14T11:26:39;98838.16;;;31.63;24.51
13124;BME280;6627;50.920;12.050;2023-06-14T11:29:07;98619.72;;;30.30;25.43
13124;BME280;6627;50.920;12.050;2023-06-14T11:31:35;98730.16;;;30.87;24.99
13124;BME280;6627;50.920;12.050;2023-06-14T11:34:04;98728.75;;;31.25;23.65
13124;BME280;6627;50.920;12.050;2023-06-14T11:36:34;98737.28;;;31.21;24.41
13124;BME280;6627;50.920;12.050;2023-06-14T11:39:02;98792.69;;;31.88;22.90
13124;BME280;6627;50.920;12.050;2023-06-14T11:41:37;98825.56;;;32.13;24.11
13124;BME280;6627;50.920;12.050;2023-06-14T11:44:06;98573.56;;;31.00;24.09
13124;BME280;6627;50.920;12.050;2023-06-14T11:46:35;98790.81;;;31.98;24.57
13124;BME280;6627;50.920;12.050;2023-06-14T11:49:04;98654.22;;;31.02;25.26
13124;BME280;6627;50.920;12.050;2023-06-14T11:51:35;98740.28;;;31.72;23.92
13124;BME280;6627;50.920;12.050;2023-06-14T11:54:04;98696.97;;;31.48;23.79
13124;BME280;6627;50.920;12.050;2023-06-14T11:56:31;98486.75;;;30.17;25.30
13124;BME280;6627;50.920;12.050;2023-06-14T11:58:59;98492.47;;;30.09;25.08
13124;BME280;6627;50.920;12.050;2023-06-14T12:01:27;98671.41;;;31.16;24.26
13124;BME280;6627;50.920;12.050;2023-06-14T12:03:54;98742.78;;;31.54;24.29
13124;BME280;6627;50.920;12.050;2023-06-14T12:06:30;98506.09;;;30.69;24.03
13124;BME280;6627;50.920;12.050;2023-06-14T12:09:04;98685.31;;;31.20;24.67
13124;BME280;6627;50.920;12.050;2023-06-14T12:11:35;98714.34;;;31.26;24.67
13124;BME280;6627;50.920;12.050;2023-06-14T12:14:04;98665.97;;;30.97;25.04
13124;BME280;6627;50.920;12.050;2023-06-14T12:16:33;98719.41;;;31.31;24.66
13124;BME280;6627;50.920;12.050;2023-06-14T12:19:09;98810.41;;;31.98;23.51
13124;BME280;6627;50.920;12.050;2023-06-14T12:21:39;98888.59;;;32.50;23.61
13124;BME280;6627;50.920;12.050;2023-06-14T12:24:08;98730.09;;;31.78;23.96
13124;BME280;6627;50.920;12.050;2023-06-14T12:26:39;98954.00;;;33.27;22.58
13124;BME280;6627;50.920;12.050;2023-06-14T12:29:07;98714.94;;;32.56;21.83
13124;BME280;6627;50.920;12.050;2023-06-14T12:31:35;98775.50;;;33.04;21.72
13124;BME280;6627;50.920;12.050;2023-06-14T12:34:02;98407.06;;;31.21;22.89
13124;BME280;6627;50.920;12.050;2023-06-14T12:36:30;98714.50;;;32.45;23.12
13124;BME280;6627;50.920;12.050;2023-06-14T12:38:59;98702.09;;;32.80;22.64
13124;BME280;6627;50.920;12.050;2023-06-14T12:41:26;98397.88;;;30.95;23.64
13124;BME280;6627;50.920;12.050;2023-06-14T12:43:53;98564.78;;;31.27;24.33
13124;BME280;6627;50.920;12.050;2023-06-14T12:46:21;98742.47;;;31.94;24.25
13124;BME280;6627;50.920;12.050;2023-06-14T12:48:48;98743.56;;;32.38;23.20
13124;BME280;6627;50.920;12.050;2023-06-14T12:51:16;98674.09;;;31.91;23.95
13124;BME280;6627;50.920;12.050;2023-06-14T12:53:43;98894.47;;;33.07;23.60
13124;BME280;6627;50.920;12.050;2023-06-14T12:56:12;98577.50;;;31.70;23.72
13124;BME280;6627;50.920;12.050;2023-06-14T12:58:39;98602.63;;;31.86;23.27
13124;BME280;6627;50.920;12.050;2023-06-14T13:01:06;98795.03;;;32.70;23.40
13124;BME280;6627;50.920;12.050;2023-06-14T13:03:34;98701.47;;;32.25;23.07
13124;BME280;6627;50.920;12.050;2023-06-14T13:06:02;98780.13;;;32.60;23.45
13124;BME280;6627;50.920;12.050;2023-06-14T13:08:30;98616.84;;;32.05;22.88
13124;BME280;6627;50.920;12.050;2023-06-14T13:10:57;98685.78;;;32.40;22.67
13124;BME280;6627;50.920;12.050;2023-06-14T13:13:26;98688.28;;;32.38;22.86